KCKM/CKM METAR and TAF weather

Enter ICAO airport designator
Station Type Date Time Source
KCKM METAR 2021/09/27 07:35 UTC NOAA

KCKM 270735Z AUTO 00000KT BKN040 BKN046 17/17 A3007 RMK A01


Station Type Date Time Source
KCKM Decoded METAR 2021/09/27 07:35 UTC NOAA

Station name not available
Sep 27, 2021 - 03:35 AM EDT / 2021.09.27 0735 UTC
Wind: Calm:0
Sky conditions: mostly cloudy
Temperature: 62 F (17 C)
Dew Point: 62 F (17 C)
Relative Humidity: 100%
Pressure (altimeter): 30.07 in. Hg (1018 hPa)
ob: KCKM 270735Z AUTO 00000KT BKN040 BKN046 17/17 A3007 RMK A01
cycle: 7

Station Type Date Time Source
KCKM TAF UTC NOAA

Error!

Example: see airport list